Terminal Aerodrome Forecast
Issued by NWS Charleston, WV

Current Version | Previous Version | Graphics & Text | Print | Product List | Glossary On
Versions: 1 2 3 4 5 6 7 8 9 10 11 12 13 14 15 16 17 18 19 20 21 22 23 24 25 26 27 28
896
FTUS41 KRLX 210923 AAA
TAFHTS
TAF AMD
KHTS 210923Z 2109/2206 16002KT P6SM BKN050
     FM211000 00000KT 5SM BR SCT050 BKN250
     FM211300 16004KT P6SM SCT015 BKN250
     FM211400 17005KT P6SM BKN025
     FM211600 19006KT P6SM BKN040
     FM220000 17003KT P6SM BKN070=

USA.gov is the U.S. government's official web portal to all federal, state and local government web resources and services.